Time,TemperatureF,DewpointF,PressureIn,WindDirection,WindDirectionDegrees,WindSpeedMPH,WindSpeedGustMPH,Humidity,HourlyPrecipIn,Conditions,Clouds,dailyrainin,SoftwareType,DateUTC
2013-12-20 00:01:00,33.1,31.0,30.07,SSW,212,0.0,0.0,92,0.00,,,0.00,Wunderground v.1.15,2013-12-20 05:01:00,
2013-12-20 00:03:00,33.1,31.0,30.07,SSW,212,0.0,0.0,92,0.00,,,0.00,Wunderground v.1.15,2013-12-20 05:03:00,
2013-12-20 00:05:00,33.1,31.0,30.07,SSW,212,0.0,0.0,92,0.00,,,0.00,Wunderground v.1.15,2013-12-20 05:05:00,
2013-12-20 00:06:00,33.1,31.0,30.07,SSW,212,0.0,0.0,92,0.00,,,0.00,Wunderground v.1.15,2013-12-20 05:06:00,
2013-12-20 00:07:00,33.1,31.0,30.07,SSW,212,0.0,0.0,92,0.00,,,0.00,Wunderground v.1.15,2013-12-20 05:07:00,
2013-12-20 00:12:00,33.1,31.0,30.07,SSW,212,0.0,0.0,92,0.00,,,0.00,Wunderground v.1.15,2013-12-20 05:12:00,
2013-12-20 00:17:00,33.0,30.9,30.07,SSW,212,0.0,0.0,92,0.00,,,0.00,Wunderground v.1.15,2013-12-20 05:17:00,
2013-12-20 00:23:00,33.0,31.2,30.06,SSW,212,0.0,0.0,93,0.00,,,0.00,Wunderground v.1.15,2013-12-20 05:23:00,
2013-12-20 00:28:00,33.0,31.2,30.06,SSW,212,0.0,0.0,93,0.00,,,0.00,Wunderground v.1.15,2013-12-20 05:28:00,
2013-12-20 00:30:00,33.0,31.2,30.06,SSW,212,0.0,0.0,93,0.00,,,0.00,Wunderground v.1.15,2013-12-20 05:30:00,
2013-12-20 00:35:00,32.9,30.8,30.06,SSW,212,0.0,0.0,92,0.00,,,0.00,Wunderground v.1.15,2013-12-20 05:35:00,
2013-12-20 00:40:00,32.8,30.7,30.06,SSW,212,0.0,0.0,92,0.00,,,0.00,Wunderground v.1.15,2013-12-20 05:40:00,
2013-12-20 00:46:00,32.7,30.6,30.06,SSW,212,0.0,0.0,92,0.00,,,0.00,Wunderground v.1.15,2013-12-20 05:46:00,
2013-12-20 00:51:00,32.6,30.5,30.05,SSW,212,0.0,0.0,92,0.00,,,0.00,Wunderground v.1.15,2013-12-20 05:51:00,
2013-12-20 00:57:00,32.5,30.4,30.05,SSW,212,0.0,0.0,92,0.00,,,0.00,Wunderground v.1.15,2013-12-20 05:57:00,
2013-12-20 01:02:00,32.4,30.3,30.05,SSW,212,0.0,0.0,92,0.00,,,0.00,Wunderground v.1.15,2013-12-20 06:02:00,
2013-12-20 01:04:00,32.4,30.3,30.05,SSW,212,0.0,0.0,92,0.00,,,0.00,Wunderground v.1.15,2013-12-20 06:04:00,
2013-12-20 01:09:00,32.3,30.2,30.05,SSW,212,0.0,0.0,92,0.00,,,0.00,Wunderground v.1.15,2013-12-20 06:09:00,
2013-12-20 01:14:00,32.3,30.5,30.05,SSW,212,0.0,0.0,93,0.00,,,0.00,Wunderground v.1.15,2013-12-20 06:14:00,
2013-12-20 01:19:00,32.2,30.4,30.05,SSW,212,0.0,0.0,93,0.00,,,0.00,Wunderground v.1.15,2013-12-20 06:19:00,
2013-12-20 01:24:00,32.1,30.3,30.05,SSW,212,0.0,0.0,93,0.00,,,0.00,Wunderground v.1.15,2013-12-20 06:24:00,
2013-12-20 01:30:00,32.1,30.3,30.05,SSW,212,0.0,0.0,93,0.00,,,0.00,Wunderground v.1.15,2013-12-20 06:30:00,
2013-12-20 01:35:00,32.1,30.3,30.05,SSW,212,0.0,0.0,93,0.00,,,0.00,Wunderground v.1.15,2013-12-20 06:35:00,
2013-12-20 01:40:00,32.1,30.3,30.05,SSW,212,0.0,0.0,93,0.00,,,0.00,Wunderground v.1.15,2013-12-20 06:40:00,
2013-12-20 01:45:00,32.2,30.7,30.05,SSW,212,0.0,0.0,94,0.00,,,0.00,Wunderground v.1.15,2013-12-20 06:45:00,
2013-12-20 01:50:00,32.4,30.9,30.05,SSW,212,0.0,0.0,94,0.00,,,0.00,Wunderground v.1.15,2013-12-20 06:50:00,
2013-12-20 01:56:00,32.5,31.0,30.05,SSW,212,0.0,0.0,94,0.00,,,0.00,Wunderground v.1.15,2013-12-20 06:56:00,
2013-12-20 02:02:00,32.6,31.1,30.05,SSW,212,0.0,0.0,94,0.00,,,0.00,Wunderground v.1.15,2013-12-20 07:02:00,
2013-12-20 02:08:00,32.8,31.3,30.05,SSW,212,0.0,0.0,94,0.00,,,0.00,Wunderground v.1.15,2013-12-20 07:08:00,
2013-12-20 02:13:00,32.8,31.3,30.05,SSW,212,0.0,0.0,94,0.00,,,0.00,Wunderground v.1.15,2013-12-20 07:13:00,
2013-12-20 02:18:00,32.9,31.4,30.05,SSW,212,0.0,0.0,94,0.00,,,0.00,Wunderground v.1.15,2013-12-20 07:18:00,
2013-12-20 02:24:00,32.9,31.4,30.05,SSW,212,0.0,0.0,94,0.00,,,0.00,Wunderground v.1.15,2013-12-20 07:24:00,
2013-12-20 02:29:00,33.0,31.5,30.05,SSW,212,0.0,0.0,94,0.00,,,0.00,Wunderground v.1.15,2013-12-20 07:29:00,
2013-12-20 02:34:00,33.1,31.6,30.05,SSW,212,0.0,0.0,94,0.00,,,0.00,Wunderground v.1.15,2013-12-20 07:34:00,
2013-12-20 02:40:00,33.2,31.7,30.05,SSW,212,0.0,0.0,94,0.00,,,0.00,Wunderground v.1.15,2013-12-20 07:40:00,
2013-12-20 02:45:00,33.3,31.8,30.05,SSW,212,0.0,0.0,94,0.00,,,0.00,Wunderground v.1.15,2013-12-20 07:45:00,
2013-12-20 02:50:00,33.5,32.0,30.05,SSW,212,0.0,0.0,94,0.00,,,0.00,Wunderground v.1.15,2013-12-20 07:50:00,
2013-12-20 02:55:00,33.6,32.1,30.04,SSW,212,0.0,0.0,94,0.00,,,0.00,Wunderground v.1.15,2013-12-20 07:55:00,
2013-12-20 03:00:00,33.9,32.4,30.04,SSW,212,0.0,0.0,94,0.00,,,0.00,Wunderground v.1.15,2013-12-20 08:00:00,
2013-12-20 03:06:00,34.1,32.3,30.04,SSW,212,0.0,0.0,93,0.00,,,0.00,Wunderground v.1.15,2013-12-20 08:06:00,
2013-12-20 03:11:00,34.3,32.5,30.04,SSW,212,0.0,0.0,93,0.00,,,0.00,Wunderground v.1.15,2013-12-20 08:11:00,
2013-12-20 03:16:00,34.5,32.4,30.04,SSW,212,0.0,0.0,92,0.00,,,0.00,Wunderground v.1.15,2013-12-20 08:16:00,
2013-12-20 03:21:00,34.7,32.6,30.04,SSW,212,0.0,0.0,92,0.00,,,0.00,Wunderground v.1.15,2013-12-20 08:21:00,
2013-12-20 03:27:00,35.0,32.9,30.04,SSW,212,0.0,0.0,92,0.00,,,0.00,Wunderground v.1.15,2013-12-20 08:27:00,
2013-12-20 03:33:00,35.5,33.1,30.04,SSW,212,0.0,0.0,91,0.00,,,0.00,Wunderground v.1.15,2013-12-20 08:33:00,
2013-12-20 03:38:00,35.9,33.0,30.03,SSW,212,0.0,0.0,89,0.00,,,0.00,Wunderground v.1.15,2013-12-20 08:38:00,
2013-12-20 03:43:00,36.5,33.0,30.03,SSW,212,0.0,0.0,87,0.00,,,0.00,Wunderground v.1.15,2013-12-20 08:43:00,
2013-12-20 03:49:00,37.2,33.1,30.03,SSW,212,0.0,0.0,85,0.00,,,0.00,Wunderground v.1.15,2013-12-20 08:49:00,
2013-12-20 03:54:00,37.8,33.1,30.03,SSW,212,0.0,0.0,83,0.00,,,0.00,Wunderground v.1.15,2013-12-20 08:54:00,
2013-12-20 03:59:00,38.4,33.1,30.03,SSW,212,0.0,0.0,81,0.00,,,0.00,Wunderground v.1.15,2013-12-20 08:59:00,
2013-12-20 04:04:00,39.2,33.5,30.03,SSW,212,0.0,0.0,80,0.00,,,0.00,Wunderground v.1.15,2013-12-20 09:04:00,
2013-12-20 04:10:00,39.7,33.4,30.03,SSW,212,0.0,0.0,78,0.00,,,0.00,Wunderground v.1.15,2013-12-20 09:10:00,
2013-12-20 04:15:00,40.2,33.2,30.04,SSW,212,0.0,0.0,76,0.00,,,0.00,Wunderground v.1.15,2013-12-20 09:15:00,
2013-12-20 04:20:00,40.7,33.7,30.03,SSW,212,0.0,0.0,76,0.00,,,0.00,Wunderground v.1.15,2013-12-20 09:20:00,
2013-12-20 04:25:00,40.9,33.2,30.03,SSW,212,0.0,0.0,74,0.00,,,0.00,Wunderground v.1.15,2013-12-20 09:25:00,
2013-12-20 04:30:00,41.1,33.1,30.03,SSW,212,0.0,0.0,73,0.00,,,0.00,Wunderground v.1.15,2013-12-20 09:30:00,
2013-12-20 04:35:00,41.6,33.2,30.03,SW,214,0.0,0.0,72,0.00,,,0.00,Wunderground v.1.15,2013-12-20 09:35:00,
2013-12-20 04:40:00,42.0,33.3,30.03,SW,214,0.0,0.0,71,0.00,,,0.00,Wunderground v.1.15,2013-12-20 09:40:00,
2013-12-20 04:46:00,42.2,33.1,30.03,SW,214,0.0,0.0,70,0.00,,,0.00,Wunderground v.1.15,2013-12-20 09:46:00,
2013-12-20 04:52:00,42.4,32.9,30.03,SW,229,0.0,0.0,69,0.00,,,0.00,Wunderground v.1.15,2013-12-20 09:52:00,
2013-12-20 04:57:00,42.6,33.5,30.03,SW,229,0.0,0.0,70,0.00,,,0.00,Wunderground v.1.15,2013-12-20 09:57:00,
2013-12-20 05:02:00,42.9,32.7,30.03,SW,229,0.0,0.0,67,0.00,,,0.00,Wunderground v.1.15,2013-12-20 10:02:00,
2013-12-20 05:08:00,43.0,33.2,30.03,SW,229,0.0,0.0,68,0.00,,,0.00,Wunderground v.1.15,2013-12-20 10:08:00,
2013-12-20 05:13:00,43.1,33.3,30.02,SW,229,0.0,0.0,68,0.00,,,0.00,Wunderground v.1.15,2013-12-20 10:13:00,
2013-12-20 05:18:00,43.0,33.2,30.02,SW,229,0.0,0.0,68,0.00,,,0.00,Wunderground v.1.15,2013-12-20 10:18:00,
2013-12-20 05:23:00,42.9,33.4,30.02,SW,229,0.0,0.0,69,0.00,,,0.00,Wunderground v.1.15,2013-12-20 10:23:00,
2013-12-20 05:29:00,43.1,32.1,30.02,NNE,13,0.0,2.0,65,0.00,,,0.00,Wunderground v.1.15,2013-12-20 10:29:00,
2013-12-20 05:34:00,43.4,32.8,30.02,NE,34,0.0,0.0,66,0.00,,,0.00,Wunderground v.1.15,2013-12-20 10:34:00,
2013-12-20 05:40:00,43.3,33.1,30.01,NE,34,0.0,0.0,67,0.00,,,0.00,Wunderground v.1.15,2013-12-20 10:40:00,
2013-12-20 05:45:00,43.0,32.4,30.01,NE,34,0.0,0.0,66,0.00,,,0.00,Wunderground v.1.15,2013-12-20 10:45:00,
2013-12-20 05:50:00,43.2,32.2,30.01,WNW,284,0.0,0.0,65,0.00,,,0.00,Wunderground v.1.15,2013-12-20 10:50:00,
2013-12-20 05:56:00,43.4,32.0,30.01,WNW,284,0.0,0.0,64,0.00,,,0.00,Wunderground v.1.15,2013-12-20 10:56:00,
2013-12-20 06:02:00,43.2,32.6,30.01,WNW,284,0.0,0.0,66,0.00,,,0.00,Wunderground v.1.15,2013-12-20 11:02:00,
2013-12-20 06:07:00,43.1,33.3,30.01,WNW,284,0.0,0.0,68,0.00,,,0.00,Wunderground v.1.15,2013-12-20 11:07:00,
2013-12-20 06:13:00,42.9,32.3,30.01,SSW,209,0.0,0.0,66,0.00,,,0.00,Wunderground v.1.15,2013-12-20 11:13:00,
2013-12-20 06:18:00,43.1,32.9,30.01,SSW,209,0.0,0.0,67,0.00,,,0.00,Wunderground v.1.15,2013-12-20 11:18:00,
2013-12-20 06:23:00,43.3,32.7,30.01,SSW,209,0.0,1.0,66,0.00,,,0.00,Wunderground v.1.15,2013-12-20 11:23:00,
2013-12-20 06:28:00,43.6,32.6,30.00,SSW,209,0.0,1.0,65,0.00,,,0.00,Wunderground v.1.15,2013-12-20 11:28:00,
2013-12-20 06:34:00,43.8,32.8,30.00,SSW,209,0.0,1.0,65,0.00,,,0.00,Wunderground v.1.15,2013-12-20 11:34:00,
2013-12-20 06:39:00,44.4,33.0,30.00,South,178,0.0,1.0,64,0.00,,,0.00,Wunderground v.1.15,2013-12-20 11:39:00,
2013-12-20 06:44:00,44.6,33.6,30.00,SSE,148,0.0,1.0,65,0.00,,,0.00,Wunderground v.1.15,2013-12-20 11:44:00,
2013-12-20 06:49:00,44.5,33.1,30.00,SSE,148,0.0,1.0,64,0.00,,,0.00,Wunderground v.1.15,2013-12-20 11:49:00,
2013-12-20 06:54:00,44.6,33.2,30.00,WSW,242,0.0,2.0,64,0.00,,,0.00,Wunderground v.1.15,2013-12-20 11:54:00,
2013-12-20 07:00:00,44.9,33.1,30.00,WSW,245,0.0,0.0,63,0.00,,,0.00,Wunderground v.1.15,2013-12-20 12:00:00,
2013-12-20 07:06:00,45.0,33.5,30.00,WSW,245,0.0,0.0,64,0.00,,,0.00,Wunderground v.1.15,2013-12-20 12:06:00,
2013-12-20 07:11:00,44.7,34.0,29.99,WSW,245,0.0,0.0,66,0.00,,,0.00,Wunderground v.1.15,2013-12-20 12:11:00,
2013-12-20 07:16:00,44.6,34.3,29.99,West,259,0.0,2.0,67,0.00,,,0.00,Wunderground v.1.15,2013-12-20 12:16:00,
2013-12-20 07:21:00,44.6,33.9,29.99,SW,223,0.0,0.0,66,0.00,,,0.00,Wunderground v.1.15,2013-12-20 12:21:00,
2013-12-20 07:26:00,44.6,33.9,29.99,SW,223,0.0,0.0,66,0.00,,,0.00,Wunderground v.1.15,2013-12-20 12:26:00,
2013-12-20 07:32:00,44.7,33.6,29.99,SW,223,0.0,0.0,65,0.00,,,0.00,Wunderground v.1.15,2013-12-20 12:32:00,
2013-12-20 07:37:00,45.1,33.6,29.99,NNW,348,0.0,0.0,64,0.00,,,0.00,Wunderground v.1.15,2013-12-20 12:37:00,
2013-12-20 07:42:00,45.2,34.1,29.99,NNW,348,0.0,0.0,65,0.00,,,0.00,Wunderground v.1.15,2013-12-20 12:42:00,
2013-12-20 07:47:00,45.1,33.6,29.99,North,355,0.0,0.0,64,0.00,,,0.00,Wunderground v.1.15,2013-12-20 12:47:00,
2013-12-20 07:52:00,45.2,34.1,29.99,NE,55,0.0,0.0,65,0.00,,,0.00,Wunderground v.1.15,2013-12-20 12:52:00,
2013-12-20 07:58:00,45.1,34.0,29.99,NE,55,0.0,0.0,65,0.00,,,0.00,Wunderground v.1.15,2013-12-20 12:58:00,
2013-12-20 08:03:00,45.1,34.4,29.98,NE,55,0.0,1.0,66,0.00,,,0.00,Wunderground v.1.15,2013-12-20 13:03:00,
2013-12-20 08:09:00,45.2,34.1,29.99,WSW,246,0.0,1.0,65,0.00,,,0.00,Wunderground v.1.15,2013-12-20 13:09:00,
2013-12-20 08:14:00,45.5,34.4,29.99,WSW,246,0.0,0.0,65,0.00,,,0.00,Wunderground v.1.15,2013-12-20 13:14:00,
2013-12-20 08:19:00,45.4,33.9,29.98,SSW,196,0.0,1.0,64,0.00,,,0.00,Wunderground v.1.15,2013-12-20 13:19:00,
2013-12-20 08:25:00,45.5,34.8,29.99,SSW,198,0.0,0.0,66,0.00,,,0.00,Wunderground v.1.15,2013-12-20 13:25:00,
2013-12-20 08:30:00,45.5,34.8,29.98,East,98,0.0,0.0,66,0.00,,,0.00,Wunderground v.1.15,2013-12-20 13:30:00,
2013-12-20 08:35:00,45.5,34.8,29.99,SE,140,0.0,0.0,66,0.00,,,0.00,Wunderground v.1.15,2013-12-20 13:35:00,
2013-12-20 08:40:00,45.4,35.1,29.98,SE,140,0.0,0.0,67,0.00,,,0.00,Wunderground v.1.15,2013-12-20 13:40:00,
2013-12-20 08:45:00,45.5,34.8,29.98,SSE,154,0.0,0.0,66,0.00,,,0.00,Wunderground v.1.15,2013-12-20 13:45:00,
2013-12-20 08:50:00,45.9,35.2,29.99,NNE,32,0.0,0.0,66,0.00,,,0.00,Wunderground v.1.15,2013-12-20 13:50:00,
2013-12-20 08:56:00,45.9,35.2,29.99,NNE,32,0.0,0.0,66,0.00,,,0.00,Wunderground v.1.15,2013-12-20 13:56:00,
2013-12-20 09:02:00,46.0,35.7,29.99,ESE,110,0.0,1.0,67,0.00,,,0.00,Wunderground v.1.15,2013-12-20 14:02:00,
2013-12-20 09:07:00,46.4,36.0,29.99,ESE,110,0.0,1.0,67,0.00,,,0.00,Wunderground v.1.15,2013-12-20 14:07:00,
2013-12-20 09:12:00,46.5,36.1,29.99,ESE,110,0.0,0.0,67,0.00,,,0.00,Wunderground v.1.15,2013-12-20 14:12:00,
2013-12-20 09:17:00,46.7,36.3,29.99,ESE,110,0.0,0.0,67,0.00,,,0.00,Wunderground v.1.15,2013-12-20 14:17:00,
2013-12-20 09:23:00,46.8,36.8,29.99,ESE,110,0.0,0.0,68,0.00,,,0.00,Wunderground v.1.15,2013-12-20 14:23:00,
2013-12-20 09:28:00,46.9,36.5,29.99,ESE,110,0.0,0.0,67,0.00,,,0.00,Wunderground v.1.15,2013-12-20 14:28:00,
2013-12-20 09:33:00,47.1,37.4,29.99,ESE,110,0.0,0.0,69,0.00,,,0.00,Wunderground v.1.15,2013-12-20 14:33:00,
2013-12-20 09:38:00,47.2,37.2,29.99,ESE,123,0.0,0.0,68,0.00,,,0.00,Wunderground v.1.15,2013-12-20 14:38:00,
2013-12-20 09:43:00,47.3,37.3,29.99,ESE,123,0.0,0.0,68,0.00,,,0.00,Wunderground v.1.15,2013-12-20 14:43:00,
2013-12-20 09:49:00,47.4,37.4,29.99,SSW,206,0.0,1.0,68,0.00,,,0.00,Wunderground v.1.15,2013-12-20 14:49:00,
2013-12-20 09:54:00,47.6,37.2,29.99,ESE,123,0.0,0.0,67,0.00,,,0.00,Wunderground v.1.15,2013-12-20 14:54:00,
2013-12-20 09:59:00,47.7,38.0,29.99,ESE,123,0.0,0.0,69,0.00,,,0.00,Wunderground v.1.15,2013-12-20 14:59:00,
2013-12-20 10:04:00,47.9,37.8,29.99,ESE,122,0.0,1.0,68,0.00,,,0.00,Wunderground v.1.15,2013-12-20 15:04:00,
2013-12-20 10:09:00,48.0,37.9,29.99,ESE,122,0.0,1.0,68,0.00,,,0.00,Wunderground v.1.15,2013-12-20 15:09:00,
2013-12-20 10:14:00,48.1,38.4,29.99,ESE,122,0.0,0.0,69,0.00,,,0.00,Wunderground v.1.15,2013-12-20 15:14:00,
2013-12-20 10:20:00,48.5,39.2,29.99,NNE,13,0.0,0.0,70,0.00,,,0.00,Wunderground v.1.15,2013-12-20 15:20:00,
2013-12-20 10:25:00,48.6,39.3,29.99,NNE,13,0.0,0.0,70,0.00,,,0.00,Wunderground v.1.15,2013-12-20 15:25:00,
2013-12-20 10:30:00,48.8,39.8,29.99,NNE,13,0.0,0.0,71,0.00,,,0.00,Wunderground v.1.15,2013-12-20 15:30:00,
2013-12-20 10:35:00,48.8,39.1,29.99,NNE,13,0.0,0.0,69,0.00,,,0.00,Wunderground v.1.15,2013-12-20 15:35:00,
2013-12-20 10:40:00,49.0,38.9,29.99,SE,127,0.0,0.0,68,0.00,,,0.00,Wunderground v.1.15,2013-12-20 15:40:00,
2013-12-20 10:46:00,49.3,39.6,29.99,SE,127,0.0,1.0,69,0.00,,,0.00,Wunderground v.1.15,2013-12-20 15:46:00,
2013-12-20 10:51:00,49.6,38.7,29.99,SE,125,0.0,0.0,66,0.00,,,0.00,Wunderground v.1.15,2013-12-20 15:51:00,
2013-12-20 10:57:00,50.0,39.1,29.99,SSW,208,0.0,0.0,66,0.00,,,0.00,Wunderground v.1.15,2013-12-20 15:57:00,
2013-12-20 11:02:00,50.3,39.8,29.99,NNE,20,1.0,1.0,67,0.00,,,0.00,Wunderground v.1.15,2013-12-20 16:02:00,
2013-12-20 11:07:00,50.4,39.9,29.99,NNE,20,0.0,1.0,67,0.00,,,0.00,Wunderground v.1.15,2013-12-20 16:07:00,
2013-12-20 11:13:00,50.4,39.9,29.99,ENE,65,0.0,0.0,67,0.00,,,0.00,Wunderground v.1.15,2013-12-20 16:13:00,
2013-12-20 11:18:00,50.5,39.9,29.99,ENE,65,0.0,0.0,67,0.00,,,0.00,Wunderground v.1.15,2013-12-20 16:18:00,
2013-12-20 11:23:00,50.5,39.2,29.98,South,188,0.0,1.0,65,0.00,,,0.00,Wunderground v.1.15,2013-12-20 16:23:00,
2013-12-20 11:28:00,50.6,40.4,29.98,West,265,0.0,1.0,68,0.00,,,0.00,Wunderground v.1.15,2013-12-20 16:28:00,
2013-12-20 11:34:00,50.7,40.5,29.98,WSW,247,0.0,2.0,68,0.00,,,0.00,Wunderground v.1.15,2013-12-20 16:34:00,
2013-12-20 11:39:00,51.0,41.2,29.98,SW,215,0.0,2.0,69,0.00,,,0.00,Wunderground v.1.15,2013-12-20 16:39:00,
2013-12-20 11:44:00,51.1,41.3,29.98,SW,215,0.0,0.0,69,0.00,,,0.00,Wunderground v.1.15,2013-12-20 16:44:00,
2013-12-20 11:50:00,51.7,42.2,29.97,NE,53,0.0,0.0,70,0.00,,,0.00,Wunderground v.1.15,2013-12-20 16:50:00,
2013-12-20 11:55:00,52.1,41.9,29.97,ESE,109,1.0,3.0,68,0.00,,,0.00,Wunderground v.1.15,2013-12-20 16:55:00,
2013-12-20 12:01:00,52.5,42.2,29.97,SE,137,0.0,4.0,68,0.00,,,0.00,Wunderground v.1.15,2013-12-20 17:01:00,
2013-12-20 12:06:00,52.7,42.4,29.97,South,191,1.0,4.0,68,0.00,,,0.00,Wunderground v.1.15,2013-12-20 17:06:00,
2013-12-20 12:11:00,52.8,42.9,29.96,East,97,1.0,1.0,69,0.00,,,0.00,Wunderground v.1.15,2013-12-20 17:11:00,
2013-12-20 12:16:00,52.8,43.3,29.96,ESE,109,0.0,1.0,70,0.00,,,0.00,Wunderground v.1.15,2013-12-20 17:16:00,
2013-12-20 12:21:00,52.7,42.8,29.96,NW,307,0.0,0.0,69,0.00,,,0.00,Wunderground v.1.15,2013-12-20 17:21:00,
2013-12-20 12:26:00,52.6,42.7,29.96,SW,229,1.0,1.0,69,0.00,,,0.00,Wunderground v.1.15,2013-12-20 17:26:00,
2013-12-20 12:32:00,52.7,43.6,29.96,SW,229,1.0,1.0,71,0.00,,,0.00,Wunderground v.1.15,2013-12-20 17:32:00,
2013-12-20 12:37:00,52.5,43.4,29.96,SW,229,0.0,1.0,71,0.00,,,0.00,Wunderground v.1.15,2013-12-20 17:37:00,
2013-12-20 12:42:00,52.4,44.0,29.96,NNW,329,0.0,1.0,73,0.00,,,0.00,Wunderground v.1.15,2013-12-20 17:42:00,
2013-12-20 12:48:00,52.2,45.2,29.96,NNW,329,0.0,1.0,77,0.00,,,0.00,Wunderground v.1.15,2013-12-20 17:48:00,
2013-12-20 12:53:00,51.8,45.2,29.96,NNW,329,0.0,0.0,78,0.00,,,0.00,Wunderground v.1.15,2013-12-20 17:53:00,
2013-12-20 12:58:00,51.2,45.2,29.95,NNW,329,0.0,0.0,80,0.00,,,0.00,Wunderground v.1.15,2013-12-20 17:58:00,
2013-12-20 13:03:00,50.6,45.6,29.95,NNW,329,0.0,0.0,83,0.00,,,0.00,Wunderground v.1.15,2013-12-20 18:03:00,
2013-12-20 13:09:00,49.9,45.9,29.95,NNW,329,0.0,0.0,86,0.00,,,0.00,Wunderground v.1.15,2013-12-20 18:09:00,
2013-12-20 13:14:00,49.4,45.4,29.95,North,5,0.0,2.0,86,0.00,,,0.00,Wunderground v.1.15,2013-12-20 18:14:00,
2013-12-20 13:19:00,49.1,45.4,29.95,North,5,0.0,2.0,87,0.00,,,0.00,Wunderground v.1.15,2013-12-20 18:19:00,
2013-12-20 13:25:00,48.7,45.3,29.94,North,5,0.0,0.0,88,0.00,,,0.00,Wunderground v.1.15,2013-12-20 18:25:00,
2013-12-20 13:30:00,48.5,45.4,29.94,North,5,0.0,0.0,89,0.00,,,0.00,Wunderground v.1.15,2013-12-20 18:30:00,
2013-12-20 13:35:00,48.4,45.3,29.94,North,5,0.0,0.0,89,0.00,,,0.00,Wunderground v.1.15,2013-12-20 18:35:00,
2013-12-20 13:41:00,48.2,45.1,29.94,North,5,0.0,0.0,89,0.00,,,0.00,Wunderground v.1.15,2013-12-20 18:41:00,
2013-12-20 13:47:00,48.2,45.1,29.93,WSW,242,0.0,2.0,89,0.00,,,0.00,Wunderground v.1.15,2013-12-20 18:47:00,
2013-12-20 13:52:00,48.6,44.9,29.93,North,5,1.0,1.0,87,0.00,,,0.00,Wunderground v.1.15,2013-12-20 18:52:00,
2013-12-20 13:57:00,48.8,45.1,29.93,South,171,1.0,1.0,87,0.00,,,0.00,Wunderground v.1.15,2013-12-20 18:57:00,
2013-12-20 14:03:00,49.0,45.0,29.94,East,101,0.0,2.0,86,0.00,,,0.00,Wunderground v.1.15,2013-12-20 19:03:00,
2013-12-20 14:08:00,49.2,45.2,29.93,NW,326,0.0,3.0,86,0.00,,,0.00,Wunderground v.1.15,2013-12-20 19:08:00,
2013-12-20 14:13:00,49.2,45.2,29.93,NNE,22,0.0,3.0,86,0.00,,,0.00,Wunderground v.1.15,2013-12-20 19:13:00,
2013-12-20 14:19:00,49.3,45.3,29.93,NE,49,0.0,3.0,86,0.00,,,0.00,Wunderground v.1.15,2013-12-20 19:19:00,
2013-12-20 14:24:00,49.2,45.2,29.93,NE,49,0.0,0.0,86,0.00,,,0.00,Wunderground v.1.15,2013-12-20 19:24:00,
2013-12-20 14:29:00,49.0,45.0,29.93,NE,49,0.0,0.0,86,0.00,,,0.00,Wunderground v.1.15,2013-12-20 19:29:00,
2013-12-20 14:34:00,48.9,44.9,29.93,NE,49,0.0,0.0,86,0.00,,,0.00,Wunderground v.1.15,2013-12-20 19:34:00,
2013-12-20 14:40:00,48.7,45.0,29.93,NE,49,0.0,0.0,87,0.00,,,0.00,Wunderground v.1.15,2013-12-20 19:40:00,
2013-12-20 14:45:00,48.6,44.9,29.93,NE,49,0.0,0.0,87,0.00,,,0.00,Wunderground v.1.15,2013-12-20 19:45:00,
2013-12-20 14:50:00,48.5,45.1,29.93,NE,49,0.0,0.0,88,0.00,,,0.00,Wunderground v.1.15,2013-12-20 19:50:00,
2013-12-20 14:56:00,48.3,45.2,29.93,NE,49,0.0,0.0,89,0.00,,,0.00,Wunderground v.1.15,2013-12-20 19:56:00,
2013-12-20 15:02:00,48.2,45.1,29.93,NE,49,0.0,0.0,89,0.00,,,0.00,Wunderground v.1.15,2013-12-20 20:02:00,
2013-12-20 15:07:00,48.1,45.3,29.93,NE,49,0.0,0.0,90,0.00,,,0.00,Wunderground v.1.15,2013-12-20 20:07:00,
2013-12-20 15:12:00,48.0,44.9,29.93,NE,49,0.0,0.0,89,0.00,,,0.00,Wunderground v.1.15,2013-12-20 20:12:00,
2013-12-20 15:17:00,48.1,45.3,29.93,NE,51,0.0,0.0,90,0.00,,,0.00,Wunderground v.1.15,2013-12-20 20:17:00,
2013-12-20 15:23:00,48.3,45.5,29.93,NE,56,0.0,1.0,90,0.00,,,0.00,Wunderground v.1.15,2013-12-20 20:23:00,
2013-12-20 15:28:00,48.3,45.8,29.93,NE,56,0.0,1.0,91,0.00,,,0.00,Wunderground v.1.15,2013-12-20 20:28:00,
2013-12-20 15:33:00,48.3,46.1,29.94,East,84,0.0,0.0,92,0.00,,,0.00,Wunderground v.1.15,2013-12-20 20:33:00,
2013-12-20 15:39:00,48.4,46.2,29.93,WSW,251,0.0,0.0,92,0.00,,,0.00,Wunderground v.1.15,2013-12-20 20:39:00,
2013-12-20 15:44:00,48.2,46.0,29.93,WSW,251,0.0,0.0,92,0.00,,,0.00,Wunderground v.1.15,2013-12-20 20:44:00,
2013-12-20 15:49:00,48.2,46.0,29.93,South,175,0.0,1.0,92,0.00,,,0.00,Wunderground v.1.15,2013-12-20 20:49:00,
2013-12-20 15:54:00,48.4,46.2,29.93,SSW,213,0.0,1.0,92,0.00,,,0.00,Wunderground v.1.15,2013-12-20 20:54:00,
2013-12-20 15:59:00,48.5,46.3,29.93,SSW,213,0.0,1.0,92,0.00,,,0.00,Wunderground v.1.15,2013-12-20 20:59:00,
2013-12-20 16:05:00,48.4,46.2,29.94,SSW,213,0.0,0.0,92,0.00,,,0.00,Wunderground v.1.15,2013-12-20 21:05:00,
2013-12-20 16:10:00,48.3,46.1,29.93,SSW,213,0.0,0.0,92,0.00,,,0.00,Wunderground v.1.15,2013-12-20 21:10:00,
2013-12-20 16:15:00,48.2,46.0,29.93,SSW,213,0.0,0.0,92,0.00,,,0.00,Wunderground v.1.15,2013-12-20 21:15:00,
2013-12-20 16:21:00,48.2,46.0,29.93,SSW,213,0.0,0.0,92,0.00,,,0.00,Wunderground v.1.15,2013-12-20 21:21:00,
2013-12-20 16:26:00,48.2,46.0,29.93,SSW,213,0.0,0.0,92,0.00,,,0.00,Wunderground v.1.15,2013-12-20 21:26:00,
2013-12-20 16:32:00,48.2,45.7,29.92,SSW,213,0.0,0.0,91,0.00,,,0.00,Wunderground v.1.15,2013-12-20 21:32:00,
2013-12-20 16:37:00,48.2,45.7,29.93,SSW,213,0.0,0.0,91,0.00,,,0.00,Wunderground v.1.15,2013-12-20 21:37:00,
2013-12-20 16:42:00,48.2,45.7,29.92,SSW,213,0.0,0.0,91,0.00,,,0.00,Wunderground v.1.15,2013-12-20 21:42:00,
2013-12-20 16:48:00,48.3,45.8,29.93,SSW,213,0.0,0.0,91,0.00,,,0.00,Wunderground v.1.15,2013-12-20 21:48:00,
2013-12-20 16:53:00,48.4,45.9,29.93,SSW,213,0.0,0.0,91,0.00,,,0.00,Wunderground v.1.15,2013-12-20 21:53:00,
2013-12-20 16:58:00,48.3,45.5,29.93,SSW,213,0.0,0.0,90,0.00,,,0.00,Wunderground v.1.15,2013-12-20 21:58:00,
2013-12-20 17:03:00,48.5,46.0,29.93,SSW,213,0.0,0.0,91,0.00,,,0.00,Wunderground v.1.15,2013-12-20 22:03:00,
2013-12-20 17:08:00,48.6,46.1,29.93,SSW,196,0.0,0.0,91,0.00,,,0.00,Wunderground v.1.15,2013-12-20 22:08:00,
2013-12-20 17:14:00,49.1,46.3,29.93,SSE,163,0.0,2.0,90,0.00,,,0.00,Wunderground v.1.15,2013-12-20 22:14:00,
2013-12-20 17:19:00,49.6,46.8,29.92,SSE,166,1.0,2.0,90,0.00,,,0.00,Wunderground v.1.15,2013-12-20 22:19:00,
2013-12-20 17:25:00,50.0,47.2,29.93,East,84,0.0,1.0,90,0.00,,,0.00,Wunderground v.1.15,2013-12-20 22:25:00,
2013-12-20 17:30:00,50.4,47.3,29.93,NNE,32,0.0,0.0,89,0.00,,,0.00,Wunderground v.1.15,2013-12-20 22:30:00,
2013-12-20 17:36:00,50.5,47.4,29.93,SE,125,0.0,1.0,89,0.00,,,0.00,Wunderground v.1.15,2013-12-20 22:36:00,
2013-12-20 17:41:00,50.7,47.6,29.93,ENE,64,0.0,0.0,89,0.00,,,0.00,Wunderground v.1.15,2013-12-20 22:41:00,
2013-12-20 17:47:00,51.0,47.9,29.93,North,5,0.0,1.0,89,0.00,,,0.00,Wunderground v.1.15,2013-12-20 22:47:00,
2013-12-20 17:52:00,51.4,48.3,29.93,WSW,238,0.0,1.0,89,0.00,,,0.00,Wunderground v.1.15,2013-12-20 22:52:00,
2013-12-20 17:57:00,51.7,48.3,29.94,ESE,107,0.0,1.0,88,0.00,,,0.00,Wunderground v.1.15,2013-12-20 22:57:00,
2013-12-20 18:03:00,51.9,48.8,29.93,WSW,240,0.0,2.0,89,0.00,,,0.00,Wunderground v.1.15,2013-12-20 23:03:00,
2013-12-20 18:08:00,51.9,48.8,29.94,SW,231,1.0,2.0,89,0.00,,,0.00,Wunderground v.1.15,2013-12-20 23:08:00,
2013-12-20 18:13:00,51.9,49.1,29.94,SE,126,1.0,2.0,90,0.00,,,0.00,Wunderground v.1.15,2013-12-20 23:13:00,
2013-12-20 18:19:00,51.8,49.0,29.94,SSE,159,1.0,2.0,90,0.00,,,0.00,Wunderground v.1.15,2013-12-20 23:19:00,
2013-12-20 18:25:00,51.8,49.0,29.95,SW,220,1.0,2.0,90,0.00,,,0.00,Wunderground v.1.15,2013-12-20 23:25:00,
2013-12-20 18:30:00,51.7,48.9,29.94,SSW,213,1.0,1.0,90,0.00,,,0.00,Wunderground v.1.15,2013-12-20 23:30:00,
2013-12-20 18:35:00,51.8,48.7,29.94,South,180,0.0,3.0,89,0.00,,,0.00,Wunderground v.1.15,2013-12-20 23:35:00,
2013-12-20 18:40:00,51.7,48.9,29.94,SSW,209,1.0,1.0,90,0.00,,,0.00,Wunderground v.1.15,2013-12-20 23:40:00,
2013-12-20 18:45:00,51.8,49.0,29.95,SW,216,1.0,5.0,90,0.00,,,0.00,Wunderground v.1.15,2013-12-20 23:45:00,
2013-12-20 18:50:00,51.8,49.0,29.95,SSE,157,0.0,0.0,90,0.00,,,0.00,Wunderground v.1.15,2013-12-20 23:50:00,
2013-12-20 18:56:00,51.8,49.0,29.95,NE,37,1.0,1.0,90,0.00,,,0.00,Wunderground v.1.15,2013-12-20 23:56:00,
2013-12-20 19:02:00,51.8,49.0,29.95,NNE,15,1.0,1.0,90,0.00,,,0.00,Wunderground v.1.15,2013-12-21 00:02:00,
2013-12-20 19:07:00,51.9,49.4,29.95,East,88,1.0,3.0,91,0.00,,,0.00,Wunderground v.1.15,2013-12-21 00:07:00,
2013-12-20 19:12:00,52.1,49.3,29.95,SSE,147,1.0,2.0,90,0.00,,,0.00,Wunderground v.1.15,2013-12-21 00:12:00,
2013-12-20 19:17:00,52.2,49.4,29.95,South,170,0.0,3.0,90,0.00,,,0.00,Wunderground v.1.15,2013-12-21 00:17:00,
2013-12-20 19:22:00,52.1,49.3,29.95,SSE,153,1.0,1.0,90,0.00,,,0.00,Wunderground v.1.15,2013-12-21 00:22:00,
2013-12-20 19:28:00,52.1,49.3,29.96,South,184,1.0,4.0,90,0.00,,,0.00,Wunderground v.1.15,2013-12-21 00:28:00,
2013-12-20 19:33:00,52.0,49.2,29.96,WNW,289,1.0,2.0,90,0.00,,,0.00,Wunderground v.1.15,2013-12-21 00:33:00,
2013-12-20 19:38:00,51.9,49.4,29.96,SSE,147,1.0,2.0,91,0.00,,,0.00,Wunderground v.1.15,2013-12-21 00:38:00,
2013-12-20 19:43:00,52.0,49.5,29.96,South,191,1.0,6.0,91,0.00,,,0.00,Wunderground v.1.15,2013-12-21 00:43:00,
2013-12-20 19:49:00,52.0,49.2,29.96,SSE,149,0.0,6.0,90,0.00,,,0.00,Wunderground v.1.15,2013-12-21 00:49:00,
2013-12-20 19:55:00,51.9,49.4,29.96,SSE,149,0.0,0.0,91,0.00,,,0.00,Wunderground v.1.15,2013-12-21 00:55:00,
2013-12-20 20:00:00,52.0,49.5,29.96,SE,131,0.0,0.0,91,0.00,,,0.00,Wunderground v.1.15,2013-12-21 01:00:00,
2013-12-20 20:06:00,52.0,49.5,29.97,South,185,0.0,1.0,91,0.00,,,0.00,Wunderground v.1.15,2013-12-21 01:06:00,
2013-12-20 20:11:00,52.0,49.5,29.96,ENE,59,0.0,0.0,91,0.00,,,0.00,Wunderground v.1.15,2013-12-21 01:11:00,
2013-12-20 20:17:00,51.8,49.3,29.96,ENE,62,0.0,0.0,91,0.00,,,0.00,Wunderground v.1.15,2013-12-21 01:17:00,
2013-12-20 20:22:00,51.6,49.4,29.96,ENE,62,0.0,0.0,92,0.00,,,0.00,Wunderground v.1.15,2013-12-21 01:22:00,
2013-12-20 20:27:00,51.4,49.2,29.96,East,95,0.0,0.0,92,0.00,,,0.00,Wunderground v.1.15,2013-12-21 01:27:00,
2013-12-20 20:32:00,51.2,49.0,29.96,East,95,0.0,0.0,92,0.00,,,0.00,Wunderground v.1.15,2013-12-21 01:32:00,
2013-12-20 20:38:00,51.0,49.0,29.96,East,95,0.0,0.0,93,0.00,,,0.00,Wunderground v.1.15,2013-12-21 01:38:00,
2013-12-20 20:43:00,50.8,48.8,29.95,East,95,0.0,0.0,93,0.00,,,0.00,Wunderground v.1.15,2013-12-21 01:43:00,
2013-12-20 20:48:00,50.7,48.7,29.95,East,95,0.0,0.0,93,0.00,,,0.00,Wunderground v.1.15,2013-12-21 01:48:00,
2013-12-20 20:53:00,50.6,48.7,29.95,East,95,0.0,0.0,93,0.00,,,0.00,Wunderground v.1.15,2013-12-21 01:53:00,
2013-12-20 20:58:00,50.5,48.6,29.94,East,95,0.0,0.0,93,0.00,,,0.00,Wunderground v.1.15,2013-12-21 01:58:00,
2013-12-20 21:04:00,50.5,48.8,29.94,ESE,121,0.0,1.0,94,0.00,,,0.00,Wunderground v.1.15,2013-12-21 02:04:00,
2013-12-20 21:09:00,50.4,48.7,29.94,SE,127,0.0,1.0,94,0.00,,,0.00,Wunderground v.1.15,2013-12-21 02:09:00,
2013-12-20 21:14:00,50.4,48.7,29.95,ESE,117,0.0,0.0,94,0.00,,,0.00,Wunderground v.1.15,2013-12-21 02:14:00,
2013-12-20 21:20:00,50.4,48.7,29.95,SSW,203,0.0,0.0,94,0.00,,,0.00,Wunderground v.1.15,2013-12-21 02:20:00,
2013-12-20 21:25:00,50.5,48.8,29.94,South,189,0.0,0.0,94,0.00,,,0.00,Wunderground v.1.15,2013-12-21 02:25:00,
2013-12-20 21:30:00,50.5,48.8,29.94,NW,313,0.0,0.0,94,0.00,,,0.00,Wunderground v.1.15,2013-12-21 02:30:00,
2013-12-20 21:35:00,50.5,48.8,29.95,WNW,292,0.0,0.0,94,0.00,,,0.00,Wunderground v.1.15,2013-12-21 02:35:00,
2013-12-20 21:41:00,50.7,49.0,29.94,WNW,284,0.0,0.0,94,0.00,,,0.00,Wunderground v.1.15,2013-12-21 02:41:00,
2013-12-20 21:47:00,50.6,48.7,29.94,West,279,0.0,0.0,93,0.00,,,0.00,Wunderground v.1.15,2013-12-21 02:47:00,
2013-12-20 21:52:00,50.6,48.7,29.94,SW,219,0.0,0.0,93,0.00,,,0.00,Wunderground v.1.15,2013-12-21 02:52:00,
2013-12-20 21:57:00,50.6,48.7,29.94,SW,219,0.0,0.0,93,0.00,,,0.00,Wunderground v.1.15,2013-12-21 02:57:00,
2013-12-20 22:03:00,50.7,48.7,29.94,South,188,0.0,1.0,93,0.00,,,0.00,Wunderground v.1.15,2013-12-21 03:03:00,
2013-12-20 22:08:00,50.7,48.7,29.93,South,188,0.0,1.0,93,0.00,,,0.00,Wunderground v.1.15,2013-12-21 03:08:00,
2013-12-20 22:13:00,50.7,48.7,29.93,South,188,0.0,0.0,93,0.00,,,0.00,Wunderground v.1.15,2013-12-21 03:13:00,
2013-12-20 22:19:00,50.6,48.7,29.93,South,188,0.0,1.0,93,0.00,,,0.00,Wunderground v.1.15,2013-12-21 03:19:00,
2013-12-20 22:24:00,50.7,48.7,29.93,South,188,0.0,0.0,93,0.00,,,0.00,Wunderground v.1.15,2013-12-21 03:24:00,
2013-12-20 22:29:00,50.8,48.8,29.93,SSE,155,0.0,1.0,93,0.00,,,0.00,Wunderground v.1.15,2013-12-21 03:29:00,
2013-12-20 22:34:00,50.9,48.9,29.93,NE,44,0.0,2.0,93,0.00,,,0.00,Wunderground v.1.15,2013-12-21 03:34:00,
2013-12-20 22:39:00,51.1,49.1,29.94,South,172,0.0,2.0,93,0.00,,,0.00,Wunderground v.1.15,2013-12-21 03:39:00,
2013-12-20 22:45:00,51.0,48.8,29.94,South,172,0.0,0.0,92,0.00,,,0.00,Wunderground v.1.15,2013-12-21 03:45:00,
2013-12-20 22:50:00,51.0,48.8,29.93,ESE,115,0.0,0.0,92,0.00,,,0.00,Wunderground v.1.15,2013-12-21 03:50:00,
2013-12-20 22:55:00,51.2,49.0,29.93,SSE,159,0.0,1.0,92,0.00,,,0.00,Wunderground v.1.15,2013-12-21 03:55:00,
2013-12-20 23:00:00,51.2,49.0,29.93,SSE,159,0.0,0.0,92,0.00,,,0.00,Wunderground v.1.15,2013-12-21 04:00:00,
2013-12-20 23:06:00,51.2,49.0,29.92,SSE,159,0.0,0.0,92,0.00,,,0.00,Wunderground v.1.15,2013-12-21 04:06:00,
2013-12-20 23:11:00,51.2,49.0,29.93,NE,42,0.0,0.0,92,0.00,,,0.00,Wunderground v.1.15,2013-12-21 04:11:00,
2013-12-20 23:16:00,51.2,48.7,29.92,NE,42,0.0,0.0,91,0.00,,,0.00,Wunderground v.1.15,2013-12-21 04:16:00,
2013-12-20 23:22:00,51.5,49.0,29.92,SE,130,0.0,1.0,91,0.00,,,0.00,Wunderground v.1.15,2013-12-21 04:22:00,
2013-12-20 23:27:00,51.7,49.2,29.92,SSW,194,0.0,1.0,91,0.00,,,0.00,Wunderground v.1.15,2013-12-21 04:27:00,
2013-12-20 23:32:00,51.7,48.9,29.92,SSE,165,0.0,0.0,90,0.00,,,0.00,Wunderground v.1.15,2013-12-21 04:32:00,
2013-12-20 23:37:00,51.9,49.1,29.92,NW,309,0.0,0.0,90,0.00,,,0.00,Wunderground v.1.15,2013-12-21 04:37:00,
2013-12-20 23:42:00,51.9,49.1,29.92,NW,309,0.0,0.0,90,0.00,,,0.00,Wunderground v.1.15,2013-12-21 04:42:00,
2013-12-20 23:48:00,51.9,49.1,29.92,NW,309,0.0,0.0,90,0.00,,,0.00,Wunderground v.1.15,2013-12-21 04:48:00,
2013-12-20 23:53:00,51.9,49.1,29.92,SSE,148,0.0,0.0,90,0.00,,,0.00,Wunderground v.1.15,2013-12-21 04:53:00,
2013-12-20 23:58:00,52.0,49.2,29.92,SSE,148,0.0,0.0,90,0.00,,,0.00,Wunderground v.1.15,2013-12-21 04:58:00,